Decoded Metar for KOJC (OLATHE/EXECUTIVE in KS, USA) (IATA:OJC) | Meteo·Mobile Aviation Weather
aviador You're here:

KOJC Decoded Metar

OLATHE/EXECUTIVE in KS, USA
Report Time2018-11-18 00:53:00
UTC Time2018-11-18 01:39:22
Flight Rules ifr IFR
Wind020° at 12 kt
W.Decomp.*RWY 36: 11.5 kt HW 3.3 kt RCW
W.Rank020° ranks 16
Current wind is above 020° avg. (7.9)
Visibility6437 m
Phenomena:Mist
Clouds:Overcast 007 Hf
Ceiling700 ft
Temp01°C (ISA -12)
Dew Point01°C (100% RH)
AAT-5.2°C
QNH1024 hPa
Density Alt-653 ft
Elevation1,070 ft
Report Wrong Elevation
Raw Report
KOJC 180053Z 02012KT 4SM BR OVC007 01/01 A3024 RMK AO2 CIG 006V011
SLP250 T00110006=

Extra information for KOJC:More info

Metar Taf Metar & Taf Last 4 Metars F.Rules Stats Wind Profile Meteogram Temp Stats Airport Information Weather charts Add Link Nearby VenuesMetar ALERT Operation Metar Decoded Social comments

AIRNAV info for KOJC